Aaron Joseph — WCV9877 — position and weather

sailwx.info

Track history (hours):
 
Tides and Currents Weather Stations Pressure Air Temp Water Temp Dewpoint Dewpoint Depression Visibility Wind Speed Wind Dir Waves Ship Positions

Aaron Joseph

Owner: AARON JOSEPH INC, GOLDEN MEADOW, LA. More information available from US FCC via Universal Licensing System and Coast Guard Vessel Documentation Center.

Last reported at 2015-Feb-25 01:04 UTC. Time now 2015-Feb-26 23:21 UTC.
Position N 29°33' W 090°55'.

; draft 2.5 m.

Type: Tug. MMSI: 367028680.

Date/timePositionNaut miles runAvg speedWind from/ knotsBaromVisibWave heightAir tempDewpointWater temp
2015-Feb-25 01:04N 29°33' W 090°55'3 5.9
2015-Feb-25 00:33N 29°35' W 090°58'5 5.1
2015-Feb-24 23:33N 29°37' W 091°03'5 4.9
2015-Feb-24 22:33N 29°40' W 091°08'5 4.5
2015-Feb-24 21:33N 29°41' W 091°13'2 1.5
2015-Feb-24 20:32N 29°40' W 091°14'0 0.0
2015-Feb-24 19:32N 29°40' W 091°14'0 0.0
2015-Feb-24 18:32N 29°40' W 091°14'1 1.3
2015-Feb-24 17:33N 29°41' W 091°13'5 4.6
2015-Feb-24 16:33N 29°45' W 091°11'8 5.5
2015-Feb-24 15:06N 29°53' W 091°13'1 0.0
2015-Feb-23 08:22N 29°54' W 091°13'  
2015-Feb-18 13:20N 29°54' W 091°13'0 0.1
2015-Feb-18 12:33N 29°54' W 091°13'0 0.0
2015-Feb-18 11:27N 29°54' W 091°13'0 0.0
2015-Feb-18 09:27N 29°54' W 091°13'6 0.2
2015-Feb-17 05:23N 29°58' W 091°19'0 0.1
2015-Feb-17 03:16N 29°58' W 091°18'2 2.0
2015-Feb-17 02:22N 29°57' W 091°17'4 0.2
2015-Feb-16 07:28N 29°54' W 091°13'0 0.0
2015-Feb-16 04:28N 29°54' W 091°13'0 0.0
2015-Feb-16 01:31N 29°54' W 091°13'0 0.0
2015-Feb-16 00:28N 29°54' W 091°13'0 0.0
2015-Feb-15 23:11N 29°54' W 091°13'0 0.0
2015-Feb-15 22:33N 29°54' W 091°13'0 0.0
2015-Feb-15 21:30N 29°54' W 091°13'0 0.0
2015-Feb-15 20:30N 29°54' W 091°13'0 0.0
2015-Feb-15 19:12N 29°54' W 091°13'0 0.0
2015-Feb-15 17:32N 29°54' W 091°13'0 0.0
2015-Feb-15 16:33N 29°54' W 091°13'0 0.0
2015-Feb-15 15:33N 29°54' W 091°13'0 0.0
2015-Feb-15 14:31N 29°54' W 091°13'0 0.0
2015-Feb-15 13:30N 29°54' W 091°13'0 0.0
2015-Feb-15 10:33N 29°54' W 091°13'0 0.0
2015-Feb-15 09:29N 29°54' W 091°13'0 0.0
2015-Feb-15 08:09N 29°54' W 091°13'0 0.0
2015-Feb-15 07:30N 29°54' W 091°13'0 0.0
2015-Feb-15 05:10N 29°54' W 091°13'0 0.0
2015-Feb-15 04:33N 29°54' W 091°13'0 0.0
2015-Feb-15 01:32N 29°54' W 091°13'  
Track history (hours):
 
Tides and Currents Weather Stations Pressure Air Temp Water Temp Dewpoint Dewpoint Depression Visibility Wind Speed Wind Dir Waves Ship Positions

Aaron Joseph

Owner: AARON JOSEPH INC, GOLDEN MEADOW, LA. More information available from US FCC via Universal Licensing System and Coast Guard Vessel Documentation Center.

Last reported at 2015-Feb-25 01:04 UTC. Time now 2015-Feb-26 23:21 UTC.
Position N 29°33' W 090°55'.

; draft 2.5 m.

Type: Tug. MMSI: 367028680.

Date/timePositionNaut miles runAvg speedWind from/ knotsBaromVisibWave heightAir tempDewpointWater temp
2015-Feb-25 01:04N 29°33' W 090°55'3 5.9
2015-Feb-25 00:33N 29°35' W 090°58'5 5.1
2015-Feb-24 23:33N 29°37' W 091°03'5 4.9
2015-Feb-24 22:33N 29°40' W 091°08'5 4.5
2015-Feb-24 21:33N 29°41' W 091°13'2 1.5
2015-Feb-24 20:32N 29°40' W 091°14'0 0.0
2015-Feb-24 19:32N 29°40' W 091°14'0 0.0
2015-Feb-24 18:32N 29°40' W 091°14'1 1.3
2015-Feb-24 17:33N 29°41' W 091°13'5 4.6
2015-Feb-24 16:33N 29°45' W 091°11'8 5.5
2015-Feb-24 15:06N 29°53' W 091°13'1 0.0
2015-Feb-23 08:22N 29°54' W 091°13'  
2015-Feb-18 13:20N 29°54' W 091°13'0 0.1
2015-Feb-18 12:33N 29°54' W 091°13'0 0.0
2015-Feb-18 11:27N 29°54' W 091°13'0 0.0
2015-Feb-18 09:27N 29°54' W 091°13'6 0.2
2015-Feb-17 05:23N 29°58' W 091°19'0 0.1
2015-Feb-17 03:16N 29°58' W 091°18'2 2.0
2015-Feb-17 02:22N 29°57' W 091°17'4 0.2
2015-Feb-16 07:28N 29°54' W 091°13'0 0.0
2015-Feb-16 04:28N 29°54' W 091°13'0 0.0
2015-Feb-16 01:31N 29°54' W 091°13'0 0.0
2015-Feb-16 00:28N 29°54' W 091°13'0 0.0
2015-Feb-15 23:11N 29°54' W 091°13'0 0.0
2015-Feb-15 22:33N 29°54' W 091°13'0 0.0
2015-Feb-15 21:30N 29°54' W 091°13'0 0.0
2015-Feb-15 20:30N 29°54' W 091°13'0 0.0
2015-Feb-15 19:12N 29°54' W 091°13'0 0.0
2015-Feb-15 17:32N 29°54' W 091°13'0 0.0
2015-Feb-15 16:33N 29°54' W 091°13'0 0.0
2015-Feb-15 15:33N 29°54' W 091°13'0 0.0
2015-Feb-15 14:31N 29°54' W 091°13'0 0.0
2015-Feb-15 13:30N 29°54' W 091°13'0 0.0
2015-Feb-15 10:33N 29°54' W 091°13'0 0.0
2015-Feb-15 09:29N 29°54' W 091°13'0 0.0
2015-Feb-15 08:09N 29°54' W 091°13'0 0.0
2015-Feb-15 07:30N 29°54' W 091°13'0 0.0
2015-Feb-15 05:10N 29°54' W 091°13'0 0.0
2015-Feb-15 04:33N 29°54' W 091°13'0 0.0
2015-Feb-15 01:32N 29°54' W 091°13'  

Dump ship's entire track history